This is the latest recevied weather packets stored in our database for station/object KGRR-WX. If no packets are shown the sender has not sent any weather packets the latest 10 day(s).
| Time | Temp. | Humidity | Pressure | Rain* | Wind** | Luminosity | Snow |
|---|---|---|---|---|---|---|---|
| 1788616808 | 20° C | 88% | 986.5 hPa | 0 mm | - | - | - |
| 1788615907 | 20° C | 94% | 985.7 hPa | 0 mm | - | - | - |
| 1788615007 | 20° C | 94% | 985.7 hPa | 0 mm | - | - | - |
| 1788614107 | 20° C | 94% | 985.8 hPa | 0 mm | - | - | - |
| 1788613208 | 20° C | 94% | 985.8 hPa | 0 mm | - | - | - |
| 1788612307 | 20° C | 92% | 985.4 hPa | 0 mm | - | - | - |
| 1788611408 | 20° C | 92% | 985.4 hPa | 0 mm | - | - | - |
| 1788610507 | 20° C | 92% | 985.4 hPa | 0 mm | - | - | - |
| 1788609608 | 20° C | 92% | 985.4 hPa | 0 mm | - | - | - |
| 1788608707 | 20° C | 96% | 984.7 hPa | 0 mm | - | - | - |
| 1788607809 | 20° C | 91% | 985.1 hPa | 0 mm | - | - | - |
| 1788606908 | 20.56° C | 91% | 985.1 hPa | 0 mm | - | - | - |
| 1788606009 | 20.56° C | 91% | 985.1 hPa | 0 mm | - | - | - |
| 1788605109 | 20.56° C | 95% | 984.9 hPa | 0 mm | - | - | - |
| 1788604209 | 21.11° C | 94% | 985.9 hPa | 0 mm | - | - | - |
| 1788603309 | 21.11° C | 94% | 985.9 hPa | 0 mm | - | - | - |
| 1788602409 | 21.11° C | 94% | 985.9 hPa | 0 mm | - | - | - |
| 1788601509 | 21.11° C | 96% | 984.4 hPa | 0 mm | - | - | - |
| 1788600604 | 21.11° C | 93% | 985.5 hPa | 0 mm | - | - | - |
| 1788599708 | 20.56° C | 93% | 985.5 hPa | 0 mm | - | - | - |
| 1788598809 | 20.56° C | 93% | 985.5 hPa | 0 mm | - | - | - |
| 1788597908 | 20.56° C | 93% | 984.6 hPa | 0 mm | - | - | - |
| 1788597008 | 20.56° C | 93% | 985.4 hPa | 0 mm | - | - | - |
| 1788596108 | 20° C | 93% | 985.4 hPa | 0 mm | - | - | - |
| 1788595208 | 20° C | 93% | 985.2 hPa | 0 mm | - | - | - |
* Rain latest hour (hover to see other rain measurements)
** Current wind speed in m/s (hover to see current wind gust speed)